Time;durP1;ratioP1;P1;durP2;ratioP2;P2;SDS_P1;SDS_P2;PMS_P1;PMS_P2;Temp;Humidity;BMP_temperature;BMP_pressure;BME280_temperature;BME280_humidity;BME280_pressure;Samples;Min_cycle;Max_cycle;Signal;HPM_P1;HPM_P2
2023/09/06 00:00:30;;;;;;;46.00;31.35;;;19.40;99.90;;;;;;5119169;28;20503;-82
2023/09/06 00:03:17;;;;;;;36.33;28.15;;;19.30;99.90;;;;;;5118281;28;20051;-77
2023/09/06 00:06:06;;;;;;;37.38;28.23;;;19.30;99.90;;;;;;5113886;28;20058;-83
2023/09/06 00:08:52;;;;;;;43.70;30.95;;;19.30;99.90;;;;;;5113548;28;20139;-84
2023/09/06 00:11:39;;;;;;;38.38;26.13;;;19.30;99.90;;;;;;5095902;28;20528;-74
2023/09/06 00:14:29;;;;;;;37.63;27.70;;;19.20;99.90;;;;;;5112197;28;20054;-73
2023/09/06 00:17:15;;;;;;;33.63;23.73;;;19.20;99.90;;;;;;5095324;28;20052;-72
2023/09/06 00:20:01;;;;;;;37.13;28.63;;;19.20;99.90;;;;;;5114304;28;20044;-79
2023/09/06 00:22:55;;;;;;;34.78;26.08;;;19.20;99.90;;;;;;5118795;28;20055;-71
2023/09/06 00:25:41;;;;;;;43.33;28.58;;;19.10;99.90;;;;;;5112515;28;20051;-79
2023/09/06 00:28:28;;;;;;;36.45;26.38;;;19.10;99.90;;;;;;5113413;28;20082;-79
2023/09/06 00:31:14;;;;;;;36.38;26.70;;;19.10;99.90;;;;;;5113278;28;20090;-72
2023/09/06 00:34:00;;;;;;;39.78;30.00;;;19.00;99.90;;;;;;5093497;28;20055;-72
2023/09/06 00:36:46;;;;;;;39.20;28.42;;;19.00;99.90;;;;;;5113722;28;20075;-73
2023/09/06 00:39:32;;;;;;;38.58;27.90;;;19.00;99.90;;;;;;5116406;28;20043;-72
2023/09/06 00:42:19;;;;;;;34.40;26.15;;;19.00;99.90;;;;;;5097197;28;20051;-82
2023/09/06 00:45:05;;;;;;;38.33;27.67;;;19.00;99.90;;;;;;5112209;28;20050;-84
2023/09/06 00:47:55;;;;;;;39.67;28.05;;;18.90;99.90;;;;;;5112693;28;20408;-85
2023/09/06 00:50:42;;;;;;;42.03;28.17;;;18.90;99.90;;;;;;5111790;28;20048;-80
2023/09/06 00:53:30;;;;;;;39.35;29.10;;;18.90;99.90;;;;;;5112827;28;20044;-81
2023/09/06 00:56:17;;;;;;;36.63;26.85;;;18.80;99.90;;;;;;5098283;28;20484;-84
2023/09/06 00:59:03;;;;;;;34.42;24.85;;;18.80;99.90;;;;;;5112737;28;20074;-86
2023/09/06 01:01:49;;;;;;;38.88;29.27;;;18.80;99.90;;;;;;5113562;28;20044;-80
2023/09/06 01:04:35;;;;;;;41.08;29.00;;;18.80;99.90;;;;;;5111902;28;20510;-83
2023/09/06 01:07:27;;;;;;;41.33;29.77;;;18.80;99.90;;;;;;5112647;28;20048;-84
2023/09/06 01:10:13;;;;;;;38.13;27.98;;;18.80;99.90;;;;;;5112190;28;20050;-77
2023/09/06 01:12:59;;;;;;;39.15;29.52;;;18.70;99.90;;;;;;5114000;28;20526;-79
2023/09/06 01:15:48;;;;;;;40.95;30.88;;;18.70;99.90;;;;;;5082359;28;20107;-77
2023/09/06 01:18:34;;;;;;;37.67;29.48;;;18.70;99.90;;;;;;5115409;28;20088;-78
2023/09/06 01:21:24;;;;;;;31.13;22.92;;;18.70;99.90;;;;;;5116476;28;20058;-80
2023/09/06 01:24:11;;;;;;;38.22;27.45;;;18.60;99.90;;;;;;5112440;28;20043;-81
2023/09/06 01:26:57;;;;;;;33.78;25.98;;;18.60;99.90;;;;;;5111429;28;20066;-74
2023/09/06 01:29:43;;;;;;;35.08;24.40;;;18.60;99.90;;;;;;5112007;28;20051;-80
2023/09/06 01:32:29;;;;;;;37.95;24.75;;;18.50;99.90;;;;;;5110946;28;20048;-77
2023/09/06 01:35:16;;;;;;;35.80;27.40;;;18.50;99.90;;;;;;5112396;28;20058;-78
2023/09/06 01:38:02;;;;;;;33.22;25.73;;;18.40;99.90;;;;;;5098476;28;20058;-84
2023/09/06 01:40:48;;;;;;;31.95;24.55;;;18.40;99.90;;;;;;5115540;28;20043;-82
2023/09/06 01:43:34;;;;;;;24.67;20.27;;;18.40;99.90;;;;;;5110272;28;20083;-79
2023/09/06 01:46:23;;;;;;;33.47;24.50;;;18.40;99.90;;;;;;5093489;28;20720;-81
2023/09/06 01:49:09;;;;;;;29.17;21.58;;;18.40;99.90;;;;;;5110838;28;20091;-76
2023/09/06 01:51:57;;;;;;;32.72;23.13;;;18.30;99.90;;;;;;5111524;28;20099;-83
2023/09/06 01:54:45;;;;;;;33.25;24.10;;;18.30;99.90;;;;;;5093292;28;20053;-75
2023/09/06 01:57:31;;;;;;;30.88;23.60;;;18.20;99.90;;;;;;5113241;28;20047;-77
2023/09/06 02:00:31;;;;;;;31.25;23.05;;;18.20;99.90;;;;;;5097468;28;20162;-77
2023/09/06 02:03:17;;;;;;;29.67;19.23;;;18.10;99.90;;;;;;5111935;28;20059;-78
2023/09/06 02:06:04;;;;;;;28.33;21.45;;;18.10;99.90;;;;;;5093390;28;20051;-72
2023/09/06 02:08:50;;;;;;;29.67;21.60;;;18.10;99.90;;;;;;5110956;28;20052;-73
2023/09/06 02:11:36;;;;;;;27.42;20.23;;;17.90;99.90;;;;;;5111391;28;20126;-74
2023/09/06 02:14:22;;;;;;;29.25;20.77;;;17.90;99.90;;;;;;5093794;28;20070;-71
2023/09/06 02:17:08;;;;;;;30.40;20.95;;;17.90;99.90;;;;;;5111326;28;20394;-74
2023/09/06 02:19:54;;;;;;;31.50;22.80;;;17.90;99.90;;;;;;5110513;28;20047;-74
2023/09/06 02:22:43;;;;;;;41.00;27.23;;;17.80;99.90;;;;;;5095160;28;20058;-74
2023/09/06 02:25:31;;;;;;;36.35;27.27;;;17.80;99.90;;;;;;5114555;28;20047;-83
2023/09/06 02:28:17;;;;;;;30.23;23.35;;;17.80;99.90;;;;;;5110628;28;20571;-81
2023/09/06 02:31:04;;;;;;;34.72;24.65;;;17.80;99.90;;;;;;5109595;28;20055;-81
2023/09/06 02:33:50;;;;;;;35.85;25.83;;;17.70;99.90;;;;;;5111188;28;20047;-74
2023/09/06 02:36:36;;;;;;;33.30;25.58;;;17.70;99.90;;;;;;5111002;28;20051;-72
2023/09/06 02:39:25;;;;;;;32.30;24.40;;;17.70;99.90;;;;;;5111071;28;20044;-73
2023/09/06 02:42:11;;;;;;;37.38;27.02;;;17.70;99.90;;;;;;5110644;28;20832;-73
2023/09/06 02:44:57;;;;;;;31.77;24.60;;;17.70;99.90;;;;;;5111551;28;20047;-72
2023/09/06 02:47:49;;;;;;;32.50;25.45;;;17.60;99.90;;;;;;5113822;28;20395;-73
2023/09/06 02:50:36;;;;;;;26.98;20.30;;;17.60;99.90;;;;;;5109910;28;20122;-73
2023/09/06 02:53:22;;;;;;;31.05;22.38;;;17.60;99.90;;;;;;5110429;28;20051;-75
2023/09/06 02:56:08;;;;;;;29.58;22.17;;;17.60;99.90;;;;;;5111233;28;20495;-80
2023/09/06 02:58:54;;;;;;;25.77;18.20;;;17.60;99.90;;;;;;5110743;28;20098;-70
2023/09/06 03:01:47;;;;;;;31.75;23.63;;;17.60;99.90;;;;;;5092334;28;20047;-71
2023/09/06 03:04:37;;;;;;;26.73;17.85;;;17.60;99.90;;;;;;5092780;28;20051;-75
2023/09/06 03:07:24;;;;;;;26.92;18.65;;;17.60;99.90;;;;;;5110318;28;20491;-70
2023/09/06 03:10:10;;;;;;;29.00;20.02;;;17.60;99.90;;;;;;5107547;28;20051;-70
2023/09/06 03:12:57;;;;;;;27.13;18.83;;;17.60;99.90;;;;;;5130847;28;20061;-79
2023/09/06 03:15:43;;;;;;;26.13;17.95;;;17.60;99.90;;;;;;5132298;28;20049;-79
2023/09/06 03:18:30;;;;;;;25.48;19.15;;;17.60;99.90;;;;;;5130046;28;20054;-71
2023/09/06 03:21:17;;;;;;;25.35;18.70;;;17.70;99.90;;;;;;5115768;28;20047;-70
2023/09/06 03:24:11;;;;;;;21.65;15.43;;;17.60;99.90;;;;;;5130994;28;20534;-74
2023/09/06 03:26:58;;;;;;;24.60;17.67;;;17.60;99.90;;;;;;5133367;28;20131;-70
2023/09/06 03:29:45;;;;;;;27.77;19.17;;;17.60;99.90;;;;;;5131715;28;20490;-72
2023/09/06 03:32:31;;;;;;;26.63;20.50;;;17.60;99.90;;;;;;5131406;28;20059;-71
2023/09/06 03:35:17;;;;;;;26.63;20.30;;;17.60;99.90;;;;;;5131627;28;20128;-85
2023/09/06 03:38:08;;;;;;;26.13;19.95;;;17.60;99.90;;;;;;5121131;28;20406;-78
2023/09/06 03:40:54;;;;;;;23.00;17.70;;;17.60;99.90;;;;;;5132364;27;20039;-85
2023/09/06 03:43:40;;;;;;;27.90;20.23;;;17.60;99.90;;;;;;5133623;27;20100;-84
2023/09/06 03:46:28;;;;;;;22.77;17.15;;;17.50;99.90;;;;;;5117568;27;20047;-76
2023/09/06 03:49:15;;;;;;;24.00;18.00;;;17.50;99.90;;;;;;5103365;27;20047;-74
2023/09/06 03:52:03;;;;;;;33.63;20.13;;;17.50;99.90;;;;;;5136486;27;20051;-82
2023/09/06 03:54:50;;;;;;;27.75;19.65;;;17.50;99.90;;;;;;5135587;27;20047;-72
2023/09/06 03:57:37;;;;;;;27.55;21.40;;;17.50;99.90;;;;;;5135391;27;20130;-80
2023/09/06 04:00:29;;;;;;;25.42;19.88;;;17.50;99.90;;;;;;5133719;27;20051;-74
2023/09/06 04:03:15;;;;;;;27.70;20.80;;;17.50;99.90;;;;;;5134558;27;20044;-81
2023/09/06 04:06:03;;;;;;;30.10;18.88;;;17.40;99.90;;;;;;5134733;27;20132;-85
2023/09/06 04:08:50;;;;;;;32.53;21.83;;;17.40;99.90;;;;;;5135295;27;20055;-73
2023/09/06 04:11:36;;;;;;;28.27;21.58;;;17.40;99.90;;;;;;5134569;27;20047;-71
2023/09/06 04:14:22;;;;;;;24.35;20.70;;;17.40;99.90;;;;;;5133899;27;20047;-74
2023/09/06 04:17:08;;;;;;;28.95;21.30;;;17.40;99.90;;;;;;5117027;27;20525;-85
2023/09/06 04:19:54;;;;;;;29.58;22.00;;;17.30;99.90;;;;;;5136649;27;20043;-85
2023/09/06 04:22:40;;;;;;;25.05;19.30;;;17.30;99.90;;;;;;5134802;27;20047;-77
2023/09/06 04:25:27;;;;;;;23.23;17.35;;;17.30;99.90;;;;;;5117790;27;20141;-86
2023/09/06 04:28:19;;;;;;;28.65;20.17;;;17.30;99.90;;;;;;5134535;27;20068;-83
2023/09/06 04:31:06;;;;;;;23.88;18.98;;;17.20;99.90;;;;;;5115464;27;20043;-86
2023/09/06 04:33:53;;;;;;;24.73;18.15;;;17.30;99.90;;;;;;5136252;27;20039;-86
2023/09/06 04:36:39;;;;;;;22.55;16.92;;;17.20;99.90;;;;;;5116570;27;20047;-76
2023/09/06 04:39:30;;;;;;;27.52;18.58;;;17.20;99.90;;;;;;5103245;27;20055;-81
2023/09/06 04:42:16;;;;;;;25.05;19.00;;;17.20;99.90;;;;;;5134349;27;20050;-78
2023/09/06 04:45:03;;;;;;;18.58;15.85;;;17.20;99.90;;;;;;5133694;27;20047;-83
2023/09/06 04:47:49;;;;;;;22.55;16.92;;;17.20;99.90;;;;;;5134406;27;20043;-80
2023/09/06 04:50:45;;;;;;;23.25;15.60;;;17.20;99.90;;;;;;5133968;27;20051;-72
2023/09/06 04:53:31;;;;;;;22.70;15.88;;;17.20;99.90;;;;;;5132130;27;20047;-71
2023/09/06 04:56:17;;;;;;;20.45;15.15;;;17.20;99.90;;;;;;5114938;27;20419;-71
2023/09/06 04:59:03;;;;;;;18.83;14.82;;;17.10;99.90;;;;;;5114684;27;20701;-72
2023/09/06 05:01:49;;;;;;;18.73;14.32;;;17.20;99.90;;;;;;5114348;27;20094;-72
2023/09/06 05:04:36;;;;;;;22.15;16.63;;;17.10;99.90;;;;;;5132746;27;20086;-72
2023/09/06 05:07:23;;;;;;;16.58;12.40;;;17.20;99.90;;;;;;5133879;27;20043;-73
2023/09/06 05:10:10;;;;;;;20.58;13.55;;;17.20;99.90;;;;;;5132885;27;20057;-80
2023/09/06 05:12:56;;;;;;;22.50;14.80;;;17.20;99.90;;;;;;5124137;27;20043;-75
2023/09/06 05:15:42;;;;;;;18.63;13.50;;;17.20;99.90;;;;;;5118202;27;20057;-80
2023/09/06 05:18:28;;;;;;;17.90;13.32;;;17.20;99.90;;;;;;5133311;27;20050;-84
2023/09/06 05:21:14;;;;;;;18.35;13.48;;;17.20;99.90;;;;;;5114600;27;20143;-83
2023/09/06 05:24:00;;;;;;;19.58;13.88;;;17.20;99.90;;;;;;5114530;27;20127;-87
2023/09/06 05:26:46;;;;;;;17.23;14.15;;;17.20;99.90;;;;;;5133070;27;20047;-81
2023/09/06 05:29:32;;;;;;;19.33;14.10;;;17.20;99.90;;;;;;5132042;27;20051;-80
2023/09/06 05:32:19;;;;;;;20.35;15.43;;;17.30;99.90;;;;;;5133074;27;20410;-85
2023/09/06 05:35:06;;;;;;;22.02;13.13;;;17.20;99.90;;;;;;5115552;27;20043;-83
2023/09/06 05:37:52;;;;;;;21.13;14.35;;;17.30;99.90;;;;;;5132751;27;20043;-76
2023/09/06 05:40:43;;;;;;;17.45;14.05;;;17.30;99.90;;;;;;5131377;27;20082;-85
2023/09/06 05:43:29;;;;;;;20.23;14.68;;;17.40;99.90;;;;;;5118371;27;20096;-70
2023/09/06 05:46:15;;;;;;;17.23;14.43;;;17.40;99.90;;;;;;5117736;27;20074;-71
2023/09/06 05:49:01;;;;;;;17.70;13.77;;;17.40;99.90;;;;;;5121088;27;20338;-71
2023/09/06 05:51:47;;;;;;;21.08;13.90;;;17.40;99.90;;;;;;5136607;27;20074;-74
2023/09/06 05:54:33;;;;;;;17.92;14.30;;;17.50;99.90;;;;;;5118317;27;20050;-72
2023/09/06 05:57:19;;;;;;;19.27;13.18;;;17.50;99.90;;;;;;5120667;27;20062;-71
2023/09/06 06:00:12;;;;;;;18.50;13.43;;;17.60;99.90;;;;;;5135519;27;20447;-74
2023/09/06 06:02:59;;;;;;;17.27;11.68;;;17.60;99.90;;;;;;5132704;27;20043;-73
2023/09/06 06:05:45;;;;;;;16.58;12.30;;;17.70;99.90;;;;;;5131960;27;20047;-72
2023/09/06 06:08:31;;;;;;;15.00;12.30;;;17.70;99.90;;;;;;5113533;27;20051;-71
2023/09/06 06:11:17;;;;;;;17.92;11.63;;;17.70;99.90;;;;;;5130525;27;20058;-71
2023/09/06 06:14:04;;;;;;;17.38;11.70;;;17.80;99.90;;;;;;5132567;27;20047;-72
2023/09/06 06:16:50;;;;;;;16.23;11.18;;;17.80;99.90;;;;;;5131683;27;20043;-76
2023/09/06 06:19:36;;;;;;;14.63;11.93;;;17.90;99.90;;;;;;5133435;27;20115;-73
2023/09/06 06:22:22;;;;;;;13.93;10.27;;;18.00;99.90;;;;;;5135840;27;20051;-85
2023/09/06 06:25:10;;;;;;;16.50;11.07;;;18.10;99.90;;;;;;5116356;27;20115;-72
2023/09/06 06:27:56;;;;;;;14.13;10.27;;;18.20;99.90;;;;;;5135827;27;20431;-76
2023/09/06 06:30:42;;;;;;;13.15;9.65;;;18.20;99.90;;;;;;5114662;27;20055;-75
2023/09/06 06:33:28;;;;;;;15.15;10.60;;;18.30;99.90;;;;;;5130733;27;20051;-70
2023/09/06 06:36:15;;;;;;;14.00;9.43;;;18.40;99.90;;;;;;5132078;27;20095;-74
2023/09/06 06:39:02;;;;;;;14.93;9.02;;;18.60;99.90;;;;;;5116197;27;20043;-71
2023/09/06 06:41:48;;;;;;;13.27;8.48;;;18.70;99.90;;;;;;5112446;28;20066;-73
2023/09/06 06:44:34;;;;;;;15.23;8.40;;;18.80;99.90;;;;;;5112789;28;20487;-74
2023/09/06 06:47:23;;;;;;;12.38;7.97;;;19.00;99.90;;;;;;5131983;28;20079;-73
2023/09/06 06:50:09;;;;;;;11.48;8.55;;;19.20;99.90;;;;;;5131524;28;20103;-71
2023/09/06 06:52:55;;;;;;;10.82;7.80;;;19.40;99.90;;;;;;5131451;28;20051;-70
2023/09/06 06:55:42;;;;;;;14.18;8.05;;;19.60;99.90;;;;;;5112860;28;20462;-71
2023/09/06 06:58:28;;;;;;;11.20;7.82;;;19.80;99.90;;;;;;5112676;28;20087;-72
2023/09/06 07:01:14;;;;;;;11.15;7.00;;;20.00;99.90;;;;;;5131717;28;20039;-81
2023/09/06 07:04:04;;;;;;;10.13;7.30;;;20.20;99.90;;;;;;5133412;28;20399;-78
2023/09/06 07:06:50;;;;;;;8.88;6.38;;;20.40;99.90;;;;;;5117129;28;20071;-78
2023/09/06 07:09:36;;;;;;;9.95;6.30;;;20.60;99.90;;;;;;5115621;28;20048;-71
2023/09/06 07:12:22;;;;;;;12.27;6.10;;;20.80;99.90;;;;;;5130765;28;20057;-74
2023/09/06 07:15:09;;;;;;;11.60;6.90;;;20.90;99.90;;;;;;5131341;28;20047;-79
2023/09/06 07:17:56;;;;;;;8.38;5.55;;;21.10;99.90;;;;;;5134635;27;20097;-73
2023/09/06 07:20:42;;;;;;;10.30;5.43;;;21.30;99.90;;;;;;5134920;27;20054;-72
2023/09/06 07:23:28;;;;;;;8.88;5.82;;;21.50;99.90;;;;;;5135220;27;20043;-72
2023/09/06 07:26:14;;;;;;;6.93;5.03;;;21.60;99.90;;;;;;5135233;27;20043;-72
2023/09/06 07:29:00;;;;;;;10.63;5.10;;;21.70;99.90;;;;;;5102445;27;20100;-73
2023/09/06 07:31:46;;;;;;;9.02;4.43;;;21.90;99.90;;;;;;5135328;27;20055;-72
2023/09/06 07:34:32;;;;;;;8.63;4.50;;;22.10;99.90;;;;;;5117291;27;20133;-75
2023/09/06 07:37:20;;;;;;;8.90;4.05;;;22.20;99.90;;;;;;5120129;27;20111;-73
2023/09/06 07:40:08;;;;;;;9.35;4.50;;;22.40;99.90;;;;;;5135057;27;20039;-75
2023/09/06 07:42:54;;;;;;;8.40;4.13;;;22.60;99.90;;;;;;5134232;27;20530;-72
2023/09/06 07:45:42;;;;;;;7.43;4.57;;;22.60;99.90;;;;;;5134377;27;20484;-71
2023/09/06 07:48:30;;;;;;;9.50;3.60;;;22.80;99.90;;;;;;5134734;27;20039;-76
2023/09/06 07:51:16;;;;;;;5.88;3.78;;;22.90;99.90;;;;;;5134710;27;20047;-72
2023/09/06 07:54:02;;;;;;;9.45;4.35;;;23.10;99.90;;;;;;5134105;27;20083;-77
2023/09/06 07:56:49;;;;;;;7.25;3.65;;;23.20;99.90;;;;;;5103576;27;20054;-76
2023/09/06 07:59:35;;;;;;;6.43;2.90;;;23.30;99.90;;;;;;5138686;27;20043;-77
2023/09/06 08:02:22;;;;;;;4.65;2.72;;;23.40;99.90;;;;;;5135915;27;20126;-83
2023/09/06 08:05:09;;;;;;;6.80;2.95;;;23.50;99.90;;;;;;5136626;27;20062;-80
2023/09/06 08:07:55;;;;;;;6.57;2.88;;;23.70;99.90;;;;;;5117026;27;20482;-74
2023/09/06 08:10:41;;;;;;;6.38;3.03;;;23.70;99.90;;;;;;5117024;27;20740;-82
2023/09/06 08:13:27;;;;;;;5.97;3.10;;;23.90;99.90;;;;;;5118670;27;20047;-75
2023/09/06 08:16:13;;;;;;;6.93;3.38;;;23.90;99.90;;;;;;5134712;27;20108;-81
2023/09/06 08:18:59;;;;;;;5.55;2.83;;;24.00;99.90;;;;;;5133976;27;20039;-70
2023/09/06 08:21:45;;;;;;;6.57;3.00;;;24.10;99.90;;;;;;5134400;27;20035;-74
2023/09/06 08:24:32;;;;;;;8.88;3.67;;;24.30;99.90;;;;;;5116557;27;20232;-77
2023/09/06 08:27:18;;;;;;;7.50;2.70;;;24.40;99.90;;;;;;5100313;28;20058;-75
2023/09/06 08:30:06;;;;;;;5.88;3.05;;;24.60;99.90;;;;;;5133962;27;20047;-75
2023/09/06 08:32:52;;;;;;;5.65;2.90;;;24.70;99.90;;;;;;5113343;27;20088;-76
2023/09/06 08:35:39;;;;;;;5.10;2.40;;;25.00;99.90;;;;;;5133684;27;20054;-72
2023/09/06 08:38:26;;;;;;;4.70;2.40;;;25.00;99.90;;;;;;5134386;27;20056;-72
2023/09/06 08:41:12;;;;;;;5.88;2.40;;;25.10;99.90;;;;;;5136303;27;20134;-72
2023/09/06 08:44:03;;;;;;;7.20;2.50;;;25.20;99.90;;;;;;5134487;27;20051;-73
2023/09/06 08:46:53;;;;;;;5.15;3.10;;;25.40;99.90;;;;;;5115386;27;20374;-75
2023/09/06 08:49:40;;;;;;;8.15;2.85;;;25.60;99.90;;;;;;5133930;27;20043;-82
2023/09/06 08:52:26;;;;;;;7.50;3.38;;;25.70;99.90;;;;;;5114994;27;20059;-79
2023/09/06 08:55:12;;;;;;;5.22;2.40;;;25.80;99.90;;;;;;5115208;27;20559;-85
2023/09/06 08:57:59;;;;;;;6.40;2.22;;;26.00;99.90;;;;;;5133729;27;20482;-84
2023/09/06 09:00:46;;;;;;;5.75;2.50;;;26.10;99.90;;;;;;5116709;27;20047;-83
2023/09/06 09:03:32;;;;;;;5.63;2.67;;;26.20;99.90;;;;;;5132905;27;20080;-84
2023/09/06 09:06:19;;;;;;;5.72;3.42;;;26.30;99.90;;;;;;5118241;27;20426;-74
2023/09/06 09:09:16;;;;;;;6.95;3.08;;;26.40;99.90;;;;;;5133949;27;20051;-72
2023/09/06 09:12:02;;;;;;;7.05;2.90;;;26.50;98.70;;;;;;5115097;27;20055;-72
2023/09/06 09:14:49;;;;;;;8.20;3.33;;;26.60;99.70;;;;;;5114132;27;20100;-73
2023/09/06 09:17:38;;;;;;;5.70;2.70;;;26.90;99.80;;;;;;5133191;27;20043;-82
2023/09/06 09:20:25;;;;;;;5.40;2.15;;;27.00;99.20;;;;;;5114531;27;20448;-78
2023/09/06 09:23:16;;;;;;;4.53;2.25;;;27.10;98.80;;;;;;5132738;27;20054;-79
2023/09/06 09:26:02;;;;;;;5.65;2.42;;;27.20;98.60;;;;;;5131732;27;20053;-72
2023/09/06 09:28:49;;;;;;;6.78;2.30;;;27.40;98.80;;;;;;5099659;27;20499;-81
2023/09/06 09:31:37;;;;;;;5.88;2.20;;;27.50;97.70;;;;;;5134170;27;20039;-76
2023/09/06 09:34:23;;;;;;;10.23;2.45;;;27.60;97.20;;;;;;5132654;27;20050;-73
2023/09/06 09:37:09;;;;;;;5.30;2.28;;;27.80;97.10;;;;;;5114004;27;20058;-73
2023/09/06 09:39:56;;;;;;;4.25;2.20;;;28.00;97.10;;;;;;5133002;27;20047;-75
2023/09/06 09:42:56;;;;;;;5.72;2.00;;;28.10;96.90;;;;;;5118138;27;20130;-76
2023/09/06 09:45:45;;;;;;;6.95;1.80;;;28.30;96.30;;;;;;5132616;27;20090;-80
2023/09/06 09:48:31;;;;;;;4.45;2.38;;;28.40;96.00;;;;;;5131738;27;20121;-82
2023/09/06 09:51:20;;;;;;;4.65;1.83;;;28.40;95.70;;;;;;5113278;27;20146;-74
2023/09/06 09:54:09;;;;;;;3.13;1.70;;;28.50;95.20;;;;;;5131897;27;20473;-73
2023/09/06 09:57:04;;;;;;;4.57;1.70;;;28.70;95.20;;;;;;5135458;27;20464;-85
2023/09/06 09:59:52;;;;;;;5.20;2.05;;;28.90;95.60;;;;;;5131621;27;20044;-79
2023/09/06 10:02:43;;;;;;;4.90;2.10;;;29.10;95.30;;;;;;5113132;27;20133;-81
2023/09/06 10:05:31;;;;;;;4.07;1.60;;;29.20;94.70;;;;;;5113479;27;20055;-83
2023/09/06 10:08:19;;;;;;;4.65;1.77;;;29.40;94.60;;;;;;5131917;27;20054;-83
2023/09/06 10:11:07;;;;;;;3.42;1.70;;;29.60;94.40;;;;;;5117222;27;20074;-77
2023/09/06 10:13:53;;;;;;;4.82;1.60;;;29.70;94.10;;;;;;5132982;27;20084;-76
2023/09/06 10:16:40;;;;;;;3.88;1.50;;;29.90;93.50;;;;;;5132532;27;20410;-72
2023/09/06 10:19:27;;;;;;;3.65;1.85;;;30.10;93.30;;;;;;5131675;27;20088;-76
2023/09/06 10:22:14;;;;;;;5.20;1.90;;;30.30;92.80;;;;;;5114809;27;20049;-77
2023/09/06 10:25:07;;;;;;;3.75;1.55;;;30.50;92.10;;;;;;5116260;27;20062;-72
2023/09/06 10:27:57;;;;;;;4.53;1.90;;;30.60;91.50;;;;;;5133811;27;20039;-71
2023/09/06 10:30:51;;;;;;;3.60;1.60;;;30.80;90.80;;;;;;5132961;27;20042;-85
2023/09/06 10:33:37;;;;;;;8.23;1.95;;;31.00;90.60;;;;;;5131182;27;20071;-77
2023/09/06 10:36:27;;;;;;;6.85;2.08;;;31.10;90.40;;;;;;5113654;28;20119;-86
2023/09/06 10:39:14;;;;;;;4.85;1.63;;;31.30;90.30;;;;;;5131055;27;20050;-87
2023/09/06 10:42:09;;;;;;;5.68;1.50;;;31.50;90.20;;;;;;5131256;27;20119;-87
2023/09/06 10:44:55;;;;;;;7.03;1.92;;;31.60;87.60;;;;;;5132400;28;20051;-83
2023/09/06 10:47:42;;;;;;;4.00;1.58;;;31.90;86.80;;;;;;5113664;28;20051;-79
2023/09/06 10:50:29;;;;;;;4.38;1.77;;;32.00;86.80;;;;;;5130765;27;20456;-85
2023/09/06 10:53:19;;;;;;;3.15;1.45;;;32.10;86.70;;;;;;5136719;27;20086;-75
2023/09/06 10:56:06;;;;;;;6.15;1.77;;;32.40;86.80;;;;;;5140449;27;20536;-82
2023/09/06 10:58:57;;;;;;;4.03;1.50;;;32.70;86.40;;;;;;5135342;27;20468;-75
2023/09/06 11:02:23;;;;;;;4.63;1.55;;;32.90;85.60;;;;;;5137983;27;20055;-82
2023/09/06 11:05:15;;;;;;;4.47;1.73;;;33.30;85.10;;;;;;5136821;27;20047;-72
2023/09/06 11:08:03;;;;;;;4.07;1.27;;;33.40;82.90;;;;;;5137227;27;20062;-82
2023/09/06 11:10:49;;;;;;;17.27;2.00;;;33.70;82.60;;;;;;5136692;27;20043;-80
2023/09/06 11:13:39;;;;;;;4.95;1.55;;;34.00;82.40;;;;;;5121722;27;20063;-71
2023/09/06 11:16:25;;;;;;;3.13;1.48;;;34.20;81.20;;;;;;5135067;27;20491;-73
2023/09/06 11:19:11;;;;;;;4.18;1.40;;;34.30;81.50;;;;;;5135922;27;20051;-72
2023/09/06 11:22:08;;;;;;;3.45;1.60;;;34.40;79.20;;;;;;5135559;27;20070;-71
2023/09/06 11:24:54;;;;;;;4.63;1.70;;;34.40;78.10;;;;;;5135664;27;20050;-72
2023/09/06 11:27:40;;;;;;;4.65;1.55;;;34.70;79.10;;;;;;5137876;27;20050;-74
2023/09/06 11:30:31;;;;;;;6.05;1.30;;;35.10;79.20;;;;;;5135398;27;20047;-73
2023/09/06 11:33:18;;;;;;;5.32;1.17;;;35.00;75.70;;;;;;5136606;27;20058;-85
2023/09/06 11:36:04;;;;;;;4.47;1.45;;;35.20;75.30;;;;;;5103895;27;20082;-72
2023/09/06 11:38:53;;;;;;;4.80;1.40;;;35.20;73.40;;;;;;5135844;27;20047;-73
2023/09/06 11:41:40;;;;;;;3.25;1.27;;;35.50;73.10;;;;;;5124482;27;20096;-81
2023/09/06 11:44:26;;;;;;;4.32;1.30;;;35.50;72.50;;;;;;5120611;27;20043;-78
2023/09/06 11:47:14;;;;;;;6.22;1.58;;;35.60;72.60;;;;;;5136403;27;20455;-73
2023/09/06 11:50:05;;;;;;;3.50;1.60;;;36.00;72.50;;;;;;5119331;27;20055;-78
2023/09/06 11:52:58;;;;;;;4.78;1.27;;;36.40;72.70;;;;;;5125343;27;20043;-76
2023/09/06 11:55:47;;;;;;;4.03;1.45;;;36.60;70.40;;;;;;5135976;27;20047;-88
2023/09/06 11:58:45;;;;;;;3.92;1.70;;;36.70;69.90;;;;;;5135515;27;20051;-72
2023/09/06 12:01:39;;;;;;;3.08;1.35;;;37.00;68.30;;;;;;5133192;27;20533;-87
2023/09/06 12:04:28;;;;;;;5.25;1.35;;;37.40;67.90;;;;;;5116234;27;20054;-85
2023/09/06 12:07:14;;;;;;;3.60;1.42;;;37.80;67.70;;;;;;5134187;27;20097;-89
2023/09/06 12:10:06;;;;;;;3.83;1.42;;;37.90;66.90;;;;;;5134106;27;20130;-85
2023/09/06 12:12:52;;;;;;;4.85;1.30;;;38.30;66.40;;;;;;5132830;27;20398;-69
2023/09/06 12:15:39;;;;;;;5.15;1.35;;;38.80;65.20;;;;;;5133925;27;20517;-81
2023/09/06 12:18:28;;;;;;;3.90;1.45;;;38.80;62.70;;;;;;5115414;27;20050;-82
2023/09/06 12:21:14;;;;;;;3.67;1.45;;;38.90;62.20;;;;;;5134701;27;20086;-73
2023/09/06 12:24:01;;;;;;;2.42;1.20;;;39.30;62.50;;;;;;5116459;27;20138;-85
2023/09/06 12:26:47;;;;;;;5.22;1.52;;;39.70;62.40;;;;;;5139304;27;20043;-87
2023/09/06 12:29:33;;;;;;;5.70;1.27;;;40.20;61.50;;;;;;5134293;27;20505;-87
2023/09/06 12:32:20;;;;;;;2.75;1.13;;;40.00;60.40;;;;;;5136203;27;20110;-82
2023/09/06 12:35:07;;;;;;;2.85;1.20;;;40.80;60.00;;;;;;5138222;27;20063;-84
2023/09/06 12:37:53;;;;;;;4.40;1.55;;;40.90;59.60;;;;;;5119353;27;20460;-83
2023/09/06 12:40:39;;;;;;;4.50;1.30;;;41.10;58.00;;;;;;5115791;27;20107;-78
2023/09/06 12:43:26;;;;;;;5.25;1.30;;;41.00;57.70;;;;;;5116173;27;20054;-81
2023/09/06 12:46:12;;;;;;;3.47;1.50;;;41.60;57.90;;;;;;5119343;27;20070;-80
2023/09/06 12:48:58;;;;;;;1.88;0.98;;;42.10;56.00;;;;;;5135055;27;20047;-79
2023/09/06 12:51:47;;;;;;;2.83;1.65;;;42.40;55.00;;;;;;5133215;27;20039;-86
2023/09/06 12:54:34;;;;;;;2.42;1.10;;;42.70;54.70;;;;;;5104095;27;20047;-83
2023/09/06 12:57:20;;;;;;;5.07;1.30;;;42.80;52.70;;;;;;5135464;27;20044;-82
2023/09/06 13:00:07;;;;;;;2.05;0.90;;;43.00;52.60;;;;;;5139465;27;20107;-73
2023/09/06 13:02:53;;;;;;;3.33;1.08;;;43.20;51.80;;;;;;5135409;27;20047;-74
2023/09/06 13:05:40;;;;;;;3.03;1.35;;;43.60;52.00;;;;;;5133410;27;20441;-82
2023/09/06 13:08:26;;;;;;;2.90;1.10;;;44.10;51.60;;;;;;5133103;27;20047;-81
2023/09/06 13:11:12;;;;;;;3.15;1.20;;;44.40;51.00;;;;;;5090992;28;20060;-72
2023/09/06 13:13:59;;;;;;;2.95;1.40;;;44.70;50.00;;;;;;5092983;28;20048;-82
2023/09/06 13:16:45;;;;;;;3.63;1.13;;;44.80;49.40;;;;;;5091352;28;20044;-78
2023/09/06 13:19:32;;;;;;;2.15;1.10;;;44.80;48.60;;;;;;5093641;28;20518;-83
2023/09/06 13:22:18;;;;;;;2.00;0.93;;;45.20;47.80;;;;;;5091461;28;20048;-73
2023/09/06 13:25:06;;;;;;;2.70;0.98;;;45.60;47.60;;;;;;5092677;28;20056;-78
2023/09/06 13:27:52;;;;;;;2.55;1.13;;;45.90;45.90;;;;;;5092936;28;20054;-84
2023/09/06 13:30:38;;;;;;;3.35;1.17;;;45.70;46.70;;;;;;5091965;28;20056;-75
2023/09/06 13:33:25;;;;;;;3.25;1.20;;;45.90;45.80;;;;;;5093048;28;20051;-72
2023/09/06 13:36:11;;;;;;;2.65;1.00;;;46.20;45.90;;;;;;5093188;28;20044;-88
2023/09/06 13:38:57;;;;;;;2.45;0.80;;;46.50;46.10;;;;;;5093184;28;20101;-76
2023/09/06 13:41:43;;;;;;;5.03;1.20;;;46.50;45.60;;;;;;5092131;28;20051;-75
2023/09/06 13:44:31;;;;;;;2.53;1.20;;;46.70;44.80;;;;;;5091800;28;20044;-86
2023/09/06 13:47:17;;;;;;;2.70;1.20;;;46.90;44.90;;;;;;5090814;28;20055;-72
2023/09/06 13:50:04;;;;;;;2.92;1.15;;;47.10;45.00;;;;;;5092754;28;20146;-72
2023/09/06 13:52:51;;;;;;;2.55;1.30;;;47.70;45.40;;;;;;5091292;28;20048;-73
2023/09/06 13:55:37;;;;;;;1.98;1.00;;;47.90;45.00;;;;;;5092630;28;20055;-73
2023/09/06 13:58:23;;;;;;;2.72;1.17;;;47.70;44.20;;;;;;5091337;28;20060;-72
2023/09/06 14:01:09;;;;;;;3.17;1.48;;;48.20;44.50;;;;;;5092845;28;20048;-71
2023/09/06 14:03:55;;;;;;;3.55;1.20;;;48.00;43.60;;;;;;5089443;28;20131;-80
2023/09/06 14:06:42;;;;;;;6.72;1.10;;;48.20;43.70;;;;;;5091432;28;20134;-79
2023/09/06 14:09:28;;;;;;;3.72;1.25;;;48.10;43.80;;;;;;5108103;27;20059;-72
2023/09/06 14:12:14;;;;;;;3.10;1.20;;;48.30;42.60;;;;;;5131515;27;20055;-72
2023/09/06 14:15:00;;;;;;;3.22;1.10;;;48.60;43.40;;;;;;5131553;27;20400;-79
2023/09/06 14:17:46;;;;;;;3.70;1.55;;;48.60;43.50;;;;;;5133621;27;20399;-75
2023/09/06 14:20:34;;;;;;;4.68;1.20;;;48.80;43.50;;;;;;5131280;27;20196;-76